Time;durP1;ratioP1;P1;durP2;ratioP2;P2;SDS_P1;SDS_P2;PMS_P1;PMS_P2;Temp;Humidity;BMP_temperature;BMP_pressure;BME280_temperature;BME280_humidity;BME280_pressure;Samples;Min_cycle;Max_cycle;Signal;HPM_P1;HPM_P2
2023/10/17 00:03:05;;;;;;;13.30;7.70;;;;;;;8.76;100.00;100809.80;177450;1259;46118;-86
2023/10/17 00:07:08;;;;;;;10.20;8.10;;;;;;;8.89;100.00;100805.08;177696;1260;59281;-83
2023/10/17 00:11:15;;;;;;;10.70;8.00;;;;;;;9.02;100.00;100800.34;177368;1259;46019;-83
2023/10/17 00:15:35;;;;;;;8.30;6.20;;;;;;;9.08;100.00;100791.61;177966;1260;46044;-83
2023/10/17 00:19:37;;;;;;;9.10;7.30;;;;;;;9.04;100.00;100792.41;177612;1260;46010;-83
2023/10/17 00:23:39;;;;;;;11.10;7.40;;;;;;;8.99;100.00;100795.38;178153;1263;46089;-83
2023/10/17 00:27:41;;;;;;;9.80;6.80;;;;;;;8.93;100.00;100788.92;176869;1263;59506;-83
2023/10/17 00:31:46;;;;;;;13.10;8.40;;;;;;;8.99;100.00;100792.25;177349;1259;46169;-82
2023/10/17 00:35:48;;;;;;;18.20;9.70;;;;;;;9.07;100.00;100791.35;177707;1259;46180;-83
2023/10/17 00:39:51;;;;;;;12.80;7.50;;;;;;;8.99;100.00;100792.20;178123;1259;45996;-83
2023/10/17 00:43:53;;;;;;;14.90;8.60;;;;;;;8.91;100.00;100796.67;177278;1259;46054;-83
2023/10/17 00:47:56;;;;;;;11.00;7.20;;;;;;;8.95;100.00;100797.40;176673;1262;60114;-83
2023/10/17 00:52:03;;;;;;;10.30;6.10;;;;;;;9.04;100.00;100795.66;176273;1263;46069;-82
2023/10/17 00:56:07;;;;;;;14.20;6.80;;;;;;;9.07;100.00;100793.48;177385;1259;44438;-82
2023/10/17 01:00:36;;;;;;;11.00;7.00;;;;;;;9.15;100.00;100791.91;176838;1259;46023;-83
2023/10/17 01:04:40;;;;;;;9.60;6.70;;;;;;;9.19;100.00;100788.58;178052;1259;46031;-83
2023/10/17 01:08:46;;;;;;;7.90;7.00;;;;;;;9.31;100.00;100791.34;177482;1259;59250;-83
2023/10/17 01:12:56;;;;;;;11.40;8.60;;;;;;;9.44;100.00;100788.35;177592;1259;45879;-84
2023/10/17 01:16:58;;;;;;;9.40;6.80;;;;;;;9.40;100.00;100790.70;177378;1259;46115;-84
2023/10/17 01:21:00;;;;;;;8.50;6.40;;;;;;;9.29;100.00;100788.77;177463;1259;46061;-84
2023/10/17 01:25:17;;;;;;;6.20;5.20;;;;;;;9.11;100.00;100788.06;177202;1259;46035;-83
2023/10/17 01:29:21;;;;;;;7.90;5.10;;;;;;;9.02;100.00;100792.38;177435;1261;59425;-84
2023/10/17 01:33:27;;;;;;;11.20;5.70;;;;;;;8.92;100.00;100796.04;176515;1259;46080;-83
2023/10/17 01:37:29;;;;;;;9.00;5.50;;;;;;;8.97;100.00;100792.67;177569;1260;46108;-83
2023/10/17 01:41:32;;;;;;;9.80;4.50;;;;;;;9.02;100.00;100786.53;177488;1259;46029;-83
2023/10/17 01:45:37;;;;;;;7.20;4.30;;;;;;;9.09;100.00;100785.04;177503;1262;46121;-84
2023/10/17 01:49:40;;;;;;;8.80;5.40;;;;;;;9.11;100.00;100795.89;177567;1259;60569;-84
2023/10/17 01:53:43;;;;;;;6.60;4.90;;;;;;;9.11;100.00;100797.10;176213;1260;45964;-84
2023/10/17 01:57:46;;;;;;;5.90;5.10;;;;;;;9.10;100.00;100798.02;176640;1259;46767;-84
2023/10/17 02:01:48;;;;;;;7.10;6.00;;;;;;;9.10;100.00;100798.37;176477;1259;46098;-84
2023/10/17 02:05:50;;;;;;;5.20;4.70;;;;;;;9.07;100.00;100792.09;177231;1261;46531;-84
2023/10/17 02:09:55;;;;;;;7.60;4.90;;;;;;;8.93;100.00;100794.21;176749;1262;58018;-83
2023/10/17 02:13:59;;;;;;;5.70;4.20;;;;;;;8.82;100.00;100798.10;176622;1259;46107;-84
2023/10/17 02:18:11;;;;;;;7.70;6.40;;;;;;;8.78;100.00;100799.84;177078;1259;46064;-84
2023/10/17 02:22:16;;;;;;;7.40;5.30;;;;;;;8.68;100.00;100795.89;177342;1259;46101;-84
2023/10/17 02:26:22;;;;;;;5.50;4.90;;;;;;;8.56;100.00;100794.33;176532;1262;46076;-83
2023/10/17 02:30:24;;;;;;;7.70;5.60;;;;;;;8.47;100.00;100789.39;177219;1259;59495;-83
2023/10/17 02:34:29;;;;;;;7.00;5.20;;;;;;;8.39;100.00;100796.25;177822;1259;46098;-84
2023/10/17 02:38:31;;;;;;;9.00;5.70;;;;;;;8.32;100.00;100793.36;177984;1259;46090;-83
2023/10/17 02:42:34;;;;;;;6.20;4.80;;;;;;;8.21;100.00;100790.89;177604;1259;45979;-83
2023/10/17 02:46:36;;;;;;;7.10;4.80;;;;;;;8.09;100.00;100795.48;177763;1259;46146;-84
2023/10/17 02:54:56;;;;;;;6.00;5.20;;;;;;;7.87;100.00;100797.75;177968;1259;184232;-84
2023/10/17 03:03:12;;;;;;;6.80;4.90;;;;;;;7.61;100.00;100795.98;177688;1259;46562;-84
2023/10/17 03:07:15;;;;;;;5.20;4.30;;;;;;;7.49;100.00;100796.56;177263;1260;46241;-84
2023/10/17 03:11:26;;;;;;;7.80;6.70;;;;;;;7.33;100.00;100801.73;177466;1259;58961;-84
2023/10/17 03:15:29;;;;;;;11.70;8.20;;;;;;;7.19;100.00;100799.21;177328;1259;46200;-84
2023/10/17 03:19:33;;;;;;;15.90;11.30;;;;;;;7.11;100.00;100802.86;177742;1259;45860;-85
2023/10/17 03:23:35;;;;;;;10.60;8.00;;;;;;;7.05;100.00;100811.31;177598;1259;46076;-85
2023/10/17 03:27:37;;;;;;;7.30;6.00;;;;;;;7.01;100.00;100811.52;177561;1259;45972;-84
2023/10/17 03:31:45;;;;;;;13.10;4.50;;;;;;;7.01;100.00;100814.89;177440;1259;59230;-84
2023/10/17 03:40:28;;;;;;;5.00;4.60;;;;;;;7.05;100.00;100808.52;177135;1260;46113;-84
2023/10/17 03:44:31;;;;;;;7.00;5.50;;;;;;;7.04;100.00;100806.98;177322;1259;46095;-84
2023/10/17 03:48:37;;;;;;;4.10;3.60;;;;;;;7.04;100.00;100810.66;177111;1260;46043;-85
2023/10/17 03:52:39;;;;;;;8.70;6.30;;;;;;;7.05;100.00;100805.14;177365;1262;59519;-85
2023/10/17 03:56:55;;;;;;;9.80;4.80;;;;;;;7.06;100.00;100805.59;177273;1259;46502;-85
2023/10/17 04:00:59;;;;;;;5.40;4.80;;;;;;;7.05;100.00;100807.41;177392;1263;46083;-85
2023/10/17 04:05:17;;;;;;;9.00;5.40;;;;;;;7.09;100.00;100807.02;177408;1262;46198;-86
2023/10/17 04:13:34;;;;;;;4.00;3.70;;;;;;;7.19;100.00;100802.05;177169;1259;58104;-86
2023/10/17 04:17:37;;;;;;;5.90;5.40;;;;;;;7.19;100.00;100801.88;177127;1260;46101;-86
2023/10/17 04:21:45;;;;;;;5.00;4.40;;;;;;;7.12;100.00;100803.67;178409;1262;44862;-85
2023/10/17 04:25:55;;;;;;;7.70;5.20;;;;;;;7.03;100.00;100803.48;178206;1260;46176;-86
2023/10/17 04:29:58;;;;;;;6.30;4.90;;;;;;;6.94;100.00;100806.29;177028;1259;45998;-86
2023/10/17 04:34:06;;;;;;;7.90;5.00;;;;;;;6.96;100.00;100803.89;177029;1259;59456;-85
2023/10/17 04:51:19;;;;;;;5.20;4.70;;;;;;;7.31;100.00;100804.70;178137;1259;46012;-85
2023/10/17 04:55:22;;;;;;;5.70;4.50;;;;;;;7.32;100.00;100805.88;177408;1259;57917;-85
2023/10/17 05:03:50;;;;;;;7.50;4.50;;;;;;;7.23;100.00;100800.20;177360;1259;45953;-85
2023/10/17 05:08:05;;;;;;;5.90;5.20;;;;;;;7.24;100.00;100803.70;177426;1259;46442;-85
2023/10/17 06:17:33;;;;;;;14.40;10.10;;;;;;;7.86;100.00;100861.02;177264;1263;45240;-85
2023/10/17 06:21:35;;;;;;;12.30;10.40;;;;;;;7.89;100.00;100865.29;177128;1259;59425;-86
2023/10/17 06:33:52;;;;;;;8.60;7.80;;;;;;;7.85;100.00;100875.92;177187;1259;45983;-84
2023/10/17 06:37:57;;;;;;;9.30;8.30;;;;;;;7.91;100.00;100875.06;177801;1259;46181;-86
2023/10/17 06:42:14;;;;;;;8.60;5.90;;;;;;;8.01;100.00;100878.48;177222;1259;59557;-86
2023/10/17 06:46:28;;;;;;;10.40;6.80;;;;;;;8.15;100.00;100882.03;177408;1262;46020;-86
2023/10/17 06:51:29;;;;;;;10.30;6.80;;;;;;;8.34;100.00;100887.44;177793;1259;45653;-85
2023/10/17 06:54:53;;;;;;;8.70;6.90;;;;;;;8.53;100.00;100887.84;177612;1262;46214;-86
2023/10/17 06:59:04;;;;;;;10.00;5.90;;;;;;;8.73;100.00;100893.34;177597;1259;45959;-85
2023/10/17 07:03:07;;;;;;;14.70;11.80;;;;;;;8.85;100.00;100897.86;177815;1260;59327;-86
2023/10/17 07:07:10;;;;;;;11.50;9.70;;;;;;;8.99;100.00;100897.86;176936;1259;46079;-86
2023/10/17 07:11:26;;;;;;;12.20;9.00;;;;;;;9.15;100.00;100896.09;176927;1259;46021;-85
2023/10/17 07:15:29;;;;;;;17.20;9.30;;;;;;;9.31;100.00;100898.41;177130;1259;46043;-85
2023/10/17 07:19:47;;;;;;;15.30;9.70;;;;;;;9.44;100.00;100901.27;177136;1259;45988;-86
2023/10/17 07:23:55;;;;;;;14.80;10.20;;;;;;;9.49;100.00;100901.66;177048;1263;57141;-85
2023/10/17 07:27:57;;;;;;;15.90;9.70;;;;;;;9.58;100.00;100897.82;177209;1259;46564;-86
2023/10/17 07:32:09;;;;;;;12.40;9.20;;;;;;;9.67;100.00;100899.91;177055;1259;46201;-86
2023/10/17 07:36:13;;;;;;;13.00;9.90;;;;;;;9.76;100.00;100898.74;177540;1260;46125;-85
2023/10/17 07:40:18;;;;;;;14.80;9.70;;;;;;;9.87;100.00;100897.44;177084;1259;45972;-85
2023/10/17 07:44:39;;;;;;;18.50;9.40;;;;;;;10.00;100.00;100894.98;177270;1263;60016;-86
2023/10/17 07:48:48;;;;;;;20.40;9.90;;;;;;;10.17;100.00;100898.09;177318;1259;46042;-86
2023/10/17 07:52:51;;;;;;;18.10;14.70;;;;;;;10.28;100.00;100895.88;177634;1259;45943;-86
2023/10/17 07:56:53;;;;;;;27.80;24.20;;;;;;;10.25;100.00;100898.38;177006;1259;48756;-86
2023/10/17 08:00:55;;;;;;;29.90;21.50;;;;;;;10.27;100.00;100902.88;177164;1259;46089;-86
2023/10/17 08:05:16;;;;;;;21.10;19.10;;;;;;;10.37;100.00;100899.13;176990;1261;59544;-86
2023/10/17 08:13:41;;;;;;;16.70;11.70;;;;;;;10.57;100.00;100903.98;177212;1264;46126;-86
2023/10/17 08:17:43;;;;;;;12.40;10.30;;;;;;;10.69;100.00;100908.77;177193;1260;45307;-86
2023/10/17 08:26:11;;;;;;;14.10;12.30;;;;;;;10.77;100.00;100906.61;177386;1260;59277;-85
2023/10/17 08:30:15;;;;;;;13.80;10.90;;;;;;;10.80;100.00;100908.02;177161;1260;45987;-84
2023/10/17 08:34:41;;;;;;;22.40;13.40;;;;;;;10.88;100.00;100913.26;177329;1263;46118;-84
2023/10/17 08:38:44;;;;;;;23.40;16.80;;;;;;;10.98;100.00;100918.04;177312;1264;46053;-84
2023/10/17 08:42:49;;;;;;;19.10;14.40;;;;;;;11.03;100.00;100916.96;177328;1259;45849;-84
2023/10/17 08:46:54;;;;;;;20.70;13.60;;;;;;;11.11;100.00;100912.64;177152;1260;59005;-84
2023/10/17 08:50:56;;;;;;;17.10;13.30;;;;;;;11.17;100.00;100907.65;177330;1259;46056;-84
2023/10/17 08:54:58;;;;;;;13.20;9.90;;;;;;;11.20;100.00;100904.21;177285;1262;46093;-84
2023/10/17 08:59:03;;;;;;;16.70;10.60;;;;;;;11.21;100.00;100905.92;177240;1260;46082;-84
2023/10/17 09:03:09;;;;;;;16.50;11.20;;;;;;;11.25;100.00;100902.01;177016;1264;45978;-84
2023/10/17 09:07:22;;;;;;;14.60;11.90;;;;;;;11.29;100.00;100901.25;177796;1259;59547;-85
2023/10/17 09:11:31;;;;;;;18.20;13.30;;;;;;;11.31;100.00;100904.96;176972;1259;45911;-85
2023/10/17 09:15:48;;;;;;;15.20;11.10;;;;;;;11.21;100.00;100901.50;177104;1259;46016;-85
2023/10/17 09:19:51;;;;;;;24.60;19.20;;;;;;;11.35;100.00;100900.77;176984;1260;46436;-85
2023/10/17 09:23:54;;;;;;;24.50;16.40;;;;;;;11.51;100.00;100896.73;176882;1259;46136;-85
2023/10/17 09:27:57;;;;;;;52.90;36.70;;;;;;;11.68;100.00;100888.67;177282;1262;57954;-84
2023/10/17 09:32:00;;;;;;;22.00;16.60;;;;;;;11.80;100.00;100886.34;176933;1259;45961;-85
2023/10/17 09:36:06;;;;;;;18.20;13.60;;;;;;;11.93;100.00;100883.77;177268;1259;46536;-85
2023/10/17 09:40:14;;;;;;;18.70;16.10;;;;;;;12.06;99.27;100881.68;177043;1263;45796;-84
2023/10/17 09:44:16;;;;;;;18.00;14.80;;;;;;;12.25;99.20;100882.23;176896;1260;46076;-84
2023/10/17 09:48:27;;;;;;;15.30;13.70;;;;;;;12.42;97.30;100882.66;177228;1264;59542;-85
2023/10/17 09:52:31;;;;;;;10.90;9.40;;;;;;;12.57;95.09;100882.66;177059;1263;45952;-85
2023/10/17 09:56:38;;;;;;;13.40;10.30;;;;;;;12.68;93.69;100886.92;177093;1259;46136;-85
2023/10/17 10:00:48;;;;;;;11.40;7.90;;;;;;;12.78;92.85;100886.86;177095;1263;46118;-86
2023/10/17 10:04:51;;;;;;;10.60;7.50;;;;;;;12.91;92.34;100882.27;176946;1259;46102;-86
2023/10/17 10:08:55;;;;;;;13.70;8.20;;;;;;;12.85;90.11;100873.67;177657;1263;57949;-84
2023/10/17 10:12:58;;;;;;;13.90;10.50;;;;;;;12.83;88.96;100874.50;177290;1259;46024;-85
2023/10/17 10:17:03;;;;;;;14.90;10.10;;;;;;;12.85;88.14;100871.19;177241;1260;46018;-84
2023/10/17 10:21:12;;;;;;;14.30;8.90;;;;;;;12.88;90.04;100860.04;177080;1259;46090;-84
2023/10/17 10:25:14;;;;;;;12.40;7.70;;;;;;;12.99;88.97;100854.70;177124;1259;46061;-84
2023/10/17 10:29:23;;;;;;;18.00;9.00;;;;;;;13.09;88.19;100846.39;177055;1260;58258;-84
2023/10/17 10:33:30;;;;;;;9.30;6.90;;;;;;;13.04;88.64;100838.51;177027;1259;46110;-84
2023/10/17 10:37:47;;;;;;;11.60;7.60;;;;;;;12.99;88.91;100833.73;177237;1264;46120;-84
2023/10/17 10:42:06;;;;;;;16.00;8.50;;;;;;;13.01;87.74;100829.13;176990;1259;46128;-86
2023/10/17 10:46:09;;;;;;;11.30;8.10;;;;;;;13.15;86.55;100827.26;177368;1264;44848;-85
2023/10/17 10:50:11;;;;;;;14.50;8.80;;;;;;;13.21;86.01;100820.66;176974;1259;57406;-84
2023/10/17 10:54:13;;;;;;;13.70;10.10;;;;;;;13.27;85.58;100818.95;177088;1261;46192;-84
2023/10/17 10:58:16;;;;;;;12.30;9.90;;;;;;;13.39;84.71;100813.09;177209;1260;46086;-84
2023/10/17 11:02:20;;;;;;;10.10;7.60;;;;;;;13.55;83.64;100806.98;177073;1260;46020;-84
2023/10/17 11:06:29;;;;;;;17.60;9.60;;;;;;;13.63;80.94;100805.77;177124;1262;46077;-85
2023/10/17 11:10:31;;;;;;;15.00;9.20;;;;;;;13.70;81.42;100804.05;177782;1262;59502;-85
2023/10/17 11:14:33;;;;;;;17.10;8.20;;;;;;;13.71;80.32;100794.34;177593;1265;44937;-85
2023/10/17 11:18:43;;;;;;;9.40;6.80;;;;;;;13.67;81.57;100787.72;177344;1260;46079;-85
2023/10/17 11:22:46;;;;;;;10.80;6.70;;;;;;;13.57;80.60;100783.51;177301;1261;46128;-85
2023/10/17 11:26:51;;;;;;;9.80;6.70;;;;;;;13.49;79.21;100780.54;177436;1261;46028;-85
2023/10/17 11:30:53;;;;;;;9.10;6.60;;;;;;;13.42;79.56;100777.38;177234;1263;60265;-85
2023/10/17 11:35:05;;;;;;;8.40;6.10;;;;;;;13.56;80.13;100776.41;177180;1260;45981;-85
2023/10/17 11:39:08;;;;;;;8.10;6.60;;;;;;;13.61;78.71;100772.11;177340;1263;46086;-85
2023/10/17 11:43:28;;;;;;;11.80;7.20;;;;;;;13.74;78.66;100771.70;176953;1260;45990;-85
2023/10/17 11:47:36;;;;;;;9.50;6.70;;;;;;;13.70;77.55;100767.89;177296;1263;46015;-85
2023/10/17 11:51:39;;;;;;;8.70;6.20;;;;;;;13.73;77.55;100764.08;177144;1263;58341;-85
2023/10/17 11:55:46;;;;;;;8.90;5.50;;;;;;;13.72;76.92;100759.69;177224;1261;45983;-85
2023/10/17 11:59:54;;;;;;;8.20;6.30;;;;;;;13.55;76.86;100749.27;177110;1260;46000;-85
2023/10/17 12:03:57;;;;;;;7.60;4.80;;;;;;;13.48;77.52;100750.02;177244;1260;46103;-85
2023/10/17 12:07:59;;;;;;;7.80;5.80;;;;;;;13.43;78.36;100741.92;177201;1261;45955;-85
2023/10/17 12:12:03;;;;;;;8.60;4.90;;;;;;;13.34;76.45;100739.77;177162;1264;59374;-84
2023/10/17 13:43:27;;;;;;;5.20;3.50;;;;;;;12.06;80.59;100689.84;178565;1263;578950;-85
2023/10/17 13:47:29;;;;;;;4.70;3.40;;;;;;;12.43;78.58;100686.88;182592;1238;57640;-86
2023/10/17 14:05:49;;;;;;;4.90;2.80;;;;;;;12.56;79.97;100673.13;176614;1283;580560;-75
2023/10/17 14:21:09;;;;;;;7.20;5.40;;;;;;;12.68;78.96;100668.15;178359;1267;46038;-76
2023/10/17 14:25:13;;;;;;;7.20;4.70;;;;;;;12.59;78.19;100658.15;179772;1269;48701;-75
2023/10/17 14:29:16;;;;;;;23.90;4.60;;;;;;;12.57;80.59;100656.71;179199;1269;44074;-75
2023/10/17 14:33:19;;;;;;;5.00;4.50;;;;;;;12.58;80.48;100652.60;178526;1270;59534;-76
2023/10/17 14:37:23;;;;;;;4.70;3.90;;;;;;;12.59;80.32;100655.67;178180;1269;45964;-76
2023/10/17 14:41:26;;;;;;;6.50;5.70;;;;;;;12.53;79.86;100655.09;179587;1269;46004;-76
2023/10/17 14:45:30;;;;;;;6.20;5.40;;;;;;;12.49;81.27;100651.58;177413;1269;46130;-77
2023/10/17 14:49:33;;;;;;;5.40;4.80;;;;;;;12.48;83.70;100653.09;180291;1269;43742;-77
2023/10/17 14:53:36;;;;;;;5.60;4.90;;;;;;;12.44;84.90;100653.89;178941;1269;59288;-77
2023/10/17 14:57:53;;;;;;;6.90;5.10;;;;;;;12.54;87.20;100653.44;180113;1268;44005;-77
2023/10/17 15:01:56;;;;;;;5.90;5.10;;;;;;;12.54;86.28;100652.36;179444;1269;43911;-77
2023/10/17 15:05:59;;;;;;;7.60;5.80;;;;;;;12.51;85.67;100647.66;178215;1268;46105;-77
2023/10/17 15:10:07;;;;;;;7.40;5.00;;;;;;;12.50;86.08;100643.09;178486;1269;46063;-77
2023/10/17 15:14:10;;;;;;;8.40;6.60;;;;;;;12.46;86.48;100646.45;179218;1269;57906;-77
2023/10/17 15:18:14;;;;;;;8.70;5.10;;;;;;;12.47;87.86;100646.42;178627;1257;45966;-75
2023/10/17 15:22:17;;;;;;;11.90;8.90;;;;;;;12.46;85.22;100645.95;178581;1257;46001;-74
2023/10/17 15:26:21;;;;;;;15.10;9.90;;;;;;;12.45;82.56;100648.85;179230;1257;45923;-75
2023/10/17 15:30:25;;;;;;;17.20;12.40;;;;;;;12.48;81.34;100650.88;179455;1261;46099;-74
2023/10/17 15:34:39;;;;;;;24.20;10.20;;;;;;;12.48;80.91;100640.60;178653;1257;59140;-74
2023/10/17 15:38:43;;;;;;;17.30;11.70;;;;;;;12.48;83.34;100634.06;178301;1257;45983;-74
2023/10/17 15:42:49;;;;;;;16.60;11.60;;;;;;;12.42;84.59;100633.13;178688;1260;44399;-74
2023/10/17 15:46:54;;;;;;;38.50;25.60;;;;;;;12.30;86.79;100635.58;178753;1257;46006;-75
2023/10/17 15:50:58;;;;;;;21.80;15.10;;;;;;;12.18;84.41;100641.66;179343;1259;45977;-74
2023/10/17 15:55:01;;;;;;;15.00;12.40;;;;;;;12.11;83.23;100648.46;178495;1257;57991;-74
2023/10/17 15:59:04;;;;;;;11.80;9.40;;;;;;;12.03;83.78;100656.18;177859;1257;46107;-74
2023/10/17 16:03:07;;;;;;;26.10;19.50;;;;;;;12.00;84.64;100654.81;181046;1257;43779;-75
2023/10/17 16:07:14;;;;;;;25.20;18.30;;;;;;;11.97;86.88;100660.08;177612;1257;44504;-74
2023/10/17 16:11:19;;;;;;;23.00;16.60;;;;;;;11.93;87.97;100666.39;179070;1257;45939;-75
2023/10/17 16:15:24;;;;;;;33.80;23.60;;;;;;;11.87;87.11;100656.92;178405;1256;57808;-74
2023/10/17 16:19:29;;;;;;;26.10;20.90;;;;;;;11.75;86.71;100666.06;179147;1257;44089;-77
2023/10/17 16:23:32;;;;;;;30.70;20.60;;;;;;;11.67;87.71;100669.42;179795;1257;46050;-77
2023/10/17 16:27:35;;;;;;;27.30;19.20;;;;;;;11.59;88.38;100671.61;178998;1257;45976;-77
2023/10/17 16:31:39;;;;;;;18.70;13.70;;;;;;;11.53;89.33;100672.30;178787;1257;46041;-77
2023/10/17 16:35:44;;;;;;;24.60;16.20;;;;;;;11.46;90.13;100669.23;178351;1257;60137;-77
2023/10/17 16:39:47;;;;;;;21.30;16.30;;;;;;;11.37;91.58;100668.40;179982;1256;44065;-77
2023/10/17 16:43:50;;;;;;;18.40;13.30;;;;;;;11.18;92.66;100666.98;178780;1258;44155;-76
2023/10/17 16:47:53;;;;;;;18.50;13.20;;;;;;;11.09;93.13;100664.89;179266;1260;46046;-76
2023/10/17 16:51:56;;;;;;;17.80;12.90;;;;;;;11.10;93.93;100669.58;180253;1257;43788;-77
2023/10/17 16:56:03;;;;;;;19.50;11.90;;;;;;;11.16;93.72;100663.60;179713;1257;58226;-74
2023/10/17 17:00:14;;;;;;;17.60;11.70;;;;;;;11.22;93.13;100665.80;177739;1262;46162;-77
2023/10/17 17:04:16;;;;;;;14.90;10.20;;;;;;;11.23;93.26;100671.08;177174;1262;46133;-76
2023/10/17 17:08:20;;;;;;;16.30;11.70;;;;;;;11.23;94.62;100676.77;178541;1259;46124;-77
2023/10/17 17:12:23;;;;;;;28.50;14.20;;;;;;;11.23;95.03;100676.17;180028;1260;46706;-76
2023/10/17 17:16:26;;;;;;;21.60;17.10;;;;;;;11.25;95.37;100676.23;177810;1257;57665;-76
2023/10/17 17:20:34;;;;;;;19.70;14.50;;;;;;;11.16;95.84;100670.20;180386;1257;45901;-76
2023/10/17 17:24:37;;;;;;;19.40;15.60;;;;;;;11.06;96.73;100670.12;178657;1259;45991;-77
2023/10/17 17:28:40;;;;;;;32.00;20.50;;;;;;;11.06;95.43;100673.10;180433;1263;43994;-77
2023/10/17 17:32:43;;;;;;;70.90;36.50;;;;;;;11.15;94.17;100672.37;180045;1259;44267;-76
2023/10/17 17:36:46;;;;;;;64.10;38.40;;;;;;;11.21;94.26;100671.93;180732;1260;58275;-77
2023/10/17 17:40:49;;;;;;;40.00;22.40;;;;;;;11.12;95.79;100664.81;180011;1259;43997;-77
2023/10/17 17:44:53;;;;;;;35.80;26.40;;;;;;;10.97;96.69;100663.79;180627;1259;46042;-77
2023/10/17 17:48:55;;;;;;;43.50;29.90;;;;;;;10.97;96.99;100659.74;179497;1260;44234;-77
2023/10/17 17:52:58;;;;;;;28.30;19.20;;;;;;;11.04;97.10;100659.59;179479;1259;46012;-77
2023/10/17 17:57:02;;;;;;;26.60;17.70;;;;;;;11.07;97.62;100659.66;180590;1260;59746;-77
2023/10/17 18:01:07;;;;;;;17.80;13.00;;;;;;;11.06;99.43;100657.13;178416;1263;46089;-77
2023/10/17 18:05:11;;;;;;;13.90;12.40;;;;;;;11.01;99.68;100651.11;177802;1261;45962;-76
2023/10/17 18:09:16;;;;;;;19.50;12.80;;;;;;;10.96;99.94;100647.21;179057;1261;44582;-77
2023/10/17 18:13:19;;;;;;;27.10;19.70;;;;;;;10.93;98.53;100643.37;178012;1261;46072;-77
2023/10/17 18:17:22;;;;;;;29.40;20.90;;;;;;;10.94;97.00;100641.89;177575;1260;59242;-76
2023/10/17 18:21:25;;;;;;;32.00;20.90;;;;;;;10.87;96.35;100636.55;177578;1258;46078;-76
2023/10/17 18:25:28;;;;;;;38.50;22.80;;;;;;;10.76;95.57;100636.01;176657;1263;46187;-75
2023/10/17 18:29:31;;;;;;;40.40;26.20;;;;;;;10.60;96.69;100636.31;179137;1260;45101;-75
2023/10/17 18:33:35;;;;;;;36.60;21.60;;;;;;;10.47;97.22;100633.95;178824;1261;46104;-75
2023/10/17 18:37:39;;;;;;;32.00;21.90;;;;;;;10.38;99.53;100632.09;178432;1261;57604;-75
2023/10/17 18:41:42;;;;;;;34.60;25.70;;;;;;;10.34;100.00;100626.55;178122;1259;45941;-75
2023/10/17 18:45:46;;;;;;;31.00;21.80;;;;;;;10.28;100.00;100627.32;178253;1261;44758;-75
2023/10/17 18:49:49;;;;;;;34.50;22.00;;;;;;;10.11;100.00;100634.09;177678;1259;44619;-75
2023/10/17 18:53:52;;;;;;;33.00;24.50;;;;;;;10.00;100.00;100644.45;179314;1260;44115;-76
2023/10/17 18:57:56;;;;;;;46.40;30.20;;;;;;;10.02;100.00;100636.66;178930;1260;59989;-75
2023/10/17 19:01:59;;;;;;;51.00;28.50;;;;;;;10.11;100.00;100634.43;178458;1262;46179;-76
2023/10/17 19:06:05;;;;;;;34.70;25.90;;;;;;;10.18;100.00;100633.58;178572;1259;46011;-76
2023/10/17 19:10:09;;;;;;;53.90;36.20;;;;;;;10.13;100.00;100628.77;179924;1258;46673;-75
2023/10/17 19:14:15;;;;;;;39.70;27.50;;;;;;;10.14;100.00;100618.98;180295;1257;43949;-76
2023/10/17 19:18:19;;;;;;;55.80;32.40;;;;;;;10.19;100.00;100623.05;180452;1257;58220;-76
2023/10/17 19:22:22;;;;;;;46.20;28.50;;;;;;;10.24;100.00;100630.13;180560;1257;43893;-76
2023/10/17 19:26:25;;;;;;;35.90;25.60;;;;;;;10.26;100.00;100632.58;180747;1258;44401;-76
2023/10/17 19:30:30;;;;;;;44.40;30.20;;;;;;;10.30;100.00;100634.09;180427;1258;46405;-76
2023/10/17 19:34:34;;;;;;;49.20;31.50;;;;;;;10.31;100.00;100637.38;179102;1257;46009;-75
2023/10/17 19:38:37;;;;;;;41.10;30.10;;;;;;;10.31;100.00;100634.02;181064;1257;59512;-75
2023/10/17 19:42:41;;;;;;;41.00;28.30;;;;;;;10.33;100.00;100626.25;180473;1257;44120;-76
2023/10/17 19:46:44;;;;;;;47.40;30.10;;;;;;;10.38;100.00;100623.17;178206;1258;46115;-75
2023/10/17 19:50:47;;;;;;;37.90;26.50;;;;;;;10.41;100.00;100621.27;179552;1257;45983;-76
2023/10/17 19:54:50;;;;;;;41.40;31.10;;;;;;;10.37;100.00;100619.03;178717;1257;44146;-75
2023/10/17 19:58:53;;;;;;;48.70;32.10;;;;;;;10.28;100.00;100623.23;178364;1257;59757;-75
2023/10/17 20:02:56;;;;;;;50.10;34.00;;;;;;;10.21;100.00;100627.13;180579;1257;44058;-76
2023/10/17 20:07:00;;;;;;;45.40;28.10;;;;;;;10.11;100.00;100630.04;178889;1260;45237;-76
2023/10/17 20:11:05;;;;;;;39.80;29.00;;;;;;;10.04;100.00;100627.54;180338;1257;43882;-77
2023/10/17 20:15:10;;;;;;;41.60;28.70;;;;;;;10.03;100.00;100629.54;179822;1257;43951;-76
2023/10/17 20:19:13;;;;;;;40.00;27.90;;;;;;;9.92;100.00;100633.17;180425;1258;58746;-76
2023/10/17 20:23:19;;;;;;;49.90;33.70;;;;;;;9.78;99.30;100630.09;178841;1257;44066;-76
2023/10/17 20:27:24;;;;;;;46.30;33.50;;;;;;;9.65;98.63;100626.05;179820;1257;44285;-76
2023/10/17 20:31:27;;;;;;;53.00;39.60;;;;;;;9.50;98.63;100615.46;179926;1256;45996;-76
2023/10/17 20:35:35;;;;;;;52.50;40.90;;;;;;;9.22;98.35;100616.75;179022;1257;46120;-76
2023/10/17 20:39:39;;;;;;;62.30;39.20;;;;;;;9.04;98.43;100619.76;177904;1257;60071;-77
2023/10/17 20:43:41;;;;;;;39.70;30.30;;;;;;;8.91;98.43;100621.39;177450;1257;46154;-76
2023/10/17 20:47:46;;;;;;;50.20;32.70;;;;;;;8.77;98.65;100620.60;178344;1257;46035;-76
2023/10/17 20:51:49;;;;;;;45.60;31.70;;;;;;;8.66;98.91;100613.16;179423;1257;44848;-75
2023/10/17 20:55:52;;;;;;;49.80;30.90;;;;;;;8.54;99.84;100608.73;180039;1257;44030;-75
2023/10/17 20:59:55;;;;;;;38.60;28.10;;;;;;;8.45;99.98;100611.73;179940;1257;57982;-75
2023/10/17 21:03:58;;;;;;;42.70;30.20;;;;;;;8.36;99.93;100609.15;179411;1257;46091;-74
2023/10/17 21:08:03;;;;;;;45.10;28.70;;;;;;;8.24;99.86;100604.98;178438;1257;46116;-74
2023/10/17 21:12:07;;;;;;;41.20;28.70;;;;;;;8.13;99.45;100604.11;178513;1257;46032;-75
2023/10/17 21:16:10;;;;;;;44.50;28.10;;;;;;;8.04;100.00;100597.47;178482;1260;46095;-75
2023/10/17 21:20:14;;;;;;;42.60;29.80;;;;;;;7.91;100.00;100593.88;179352;1256;58256;-75
2023/10/17 21:24:17;;;;;;;43.80;31.80;;;;;;;7.78;100.00;100598.46;178595;1261;44188;-75
2023/10/17 21:28:39;;;;;;;41.00;30.90;;;;;;;7.67;100.00;100607.79;178633;1253;46053;-80
2023/10/17 21:32:43;;;;;;;41.60;26.90;;;;;;;7.59;100.00;100610.60;177554;1256;46127;-81
2023/10/17 21:36:57;;;;;;;53.90;32.00;;;;;;;7.46;100.00;100602.96;176889;1259;46103;-84
2023/10/17 21:41:22;;;;;;;47.00;31.30;;;;;;;7.42;100.00;100601.77;177331;1255;57946;-83
2023/10/17 21:45:26;;;;;;;42.10;30.70;;;;;;;7.37;100.00;100591.36;177519;1256;45976;-83
2023/10/17 21:49:30;;;;;;;43.60;28.10;;;;;;;7.23;100.00;100584.46;177414;1257;46022;-83
2023/10/17 21:53:35;;;;;;;37.30;25.30;;;;;;;7.00;100.00;100581.65;177682;1259;46131;-83
2023/10/17 21:57:39;;;;;;;35.70;28.70;;;;;;;6.84;100.00;100578.41;177607;1256;45253;-83
2023/10/17 22:01:43;;;;;;;39.40;28.20;;;;;;;6.68;100.00;100579.56;177483;1259;57489;-82
2023/10/17 22:05:47;;;;;;;37.60;26.00;;;;;;;6.62;100.00;100580.82;176821;1257;46233;-83
2023/10/17 22:09:50;;;;;;;58.90;36.10;;;;;;;6.52;100.00;100578.04;176704;1257;46098;-83
2023/10/17 22:13:53;;;;;;;45.80;32.90;;;;;;;6.34;100.00;100578.40;177014;1257;46159;-83
2023/10/17 22:17:58;;;;;;;49.00;33.00;;;;;;;6.21;100.00;100580.58;177702;1257;45984;-82
2023/10/17 22:22:06;;;;;;;50.30;33.80;;;;;;;6.25;100.00;100579.44;177767;1259;58197;-83